ENML/MOL METAR and TAF weather

Enter ICAO airport designator
Station Type Date Time Source
ENML METAR 2019/06/16 07:20 UTC NOAA

ENML 160720Z 00000KT CAVOK 19/14 Q1011


Station Type Date Time Source
ENML Decoded METAR 2019/06/16 07:20 UTC NOAA

Molde / Aro, Norway (ENML) 62-45N 007-16E 3M
Jun 16, 2019 - 03:20 AM EDT / 2019.06.16 0720 UTC
Wind: Calm:0
Visibility: greater than 7 mile(s):0
Temperature: 66 F (19 C)
Dew Point: 57 F (14 C)
Relative Humidity: 72%
Pressure (altimeter): 29.85 in. Hg (1011 hPa)
ob: ENML 160720Z 00000KT CAVOK 19/14 Q1011
cycle: 7

Station Type Date Time Source
ENML TAF UTC NOAA

Error!

Example: see airport list